sensor_id;sensor_type;location;lat;lon;timestamp;pressure;altitude;pressure_sealevel;temperature;humidity
53719;BME280;39616;48.872;9.390;2023-03-18T00:02:09;97884.84;;;7.32;96.14
53719;BME280;39616;48.872;9.390;2023-03-18T00:04:39;97884.09;;;7.26;97.59
53719;BME280;39616;48.872;9.390;2023-03-18T00:07:10;97881.75;;;7.19;98.12
53719;BME280;39616;48.872;9.390;2023-03-18T00:09:41;97882.59;;;7.15;99.24
53719;BME280;39616;48.872;9.390;2023-03-18T00:12:11;97875.63;;;7.09;99.97
53719;BME280;39616;48.872;9.390;2023-03-18T00:14:41;97876.19;;;7.06;100.00
53719;BME280;39616;48.872;9.390;2023-03-18T00:17:12;97885.38;;;7.05;100.00
53719;BME280;39616;48.872;9.390;2023-03-18T00:19:42;97883.25;;;7.01;99.74
53719;BME280;39616;48.872;9.390;2023-03-18T00:22:13;97891.91;;;6.98;99.59
53719;BME280;39616;48.872;9.390;2023-03-18T00:24:43;97880.31;;;6.98;100.00
53719;BME280;39616;48.872;9.390;2023-03-18T00:27:14;97886.25;;;7.00;100.00
53719;BME280;39616;48.872;9.390;2023-03-18T00:29:45;97884.34;;;7.00;100.00
53719;BME280;39616;48.872;9.390;2023-03-18T00:32:15;97889.97;;;7.04;100.00
53719;BME280;39616;48.872;9.390;2023-03-18T00:34:46;97887.28;;;7.04;100.00
53719;BME280;39616;48.872;9.390;2023-03-18T00:37:16;97888.34;;;7.03;99.64
53719;BME280;39616;48.872;9.390;2023-03-18T00:40:07;97890.53;;;7.01;100.00
53719;BME280;39616;48.872;9.390;2023-03-18T00:42:39;97889.50;;;6.97;100.00
53719;BME280;39616;48.872;9.390;2023-03-18T00:45:16;97894.09;;;6.96;100.00
53719;BME280;39616;48.872;9.390;2023-03-18T00:47:46;97895.44;;;6.94;100.00
53719;BME280;39616;48.872;9.390;2023-03-18T00:50:18;97907.56;;;6.96;99.92
53719;BME280;39616;48.872;9.390;2023-03-18T00:52:49;97911.94;;;6.92;99.46
53719;BME280;39616;48.872;9.390;2023-03-18T00:55:19;97904.91;;;6.91;99.73
53719;BME280;39616;48.872;9.390;2023-03-18T00:57:50;97910.28;;;6.91;99.05
53719;BME280;39616;48.872;9.390;2023-03-18T01:00:20;97912.72;;;6.93;98.25
53719;BME280;39616;48.872;9.390;2023-03-18T01:02:51;97924.81;;;6.95;97.62
53719;BME280;39616;48.872;9.390;2023-03-18T01:05:21;97918.63;;;6.95;98.13
53719;BME280;39616;48.872;9.390;2023-03-18T01:07:52;97910.53;;;6.95;97.16
53719;BME280;39616;48.872;9.390;2023-03-18T01:10:22;97916.69;;;7.00;96.25
53719;BME280;39616;48.872;9.390;2023-03-18T01:12:53;97911.63;;;6.94;96.21
53719;BME280;39616;48.872;9.390;2023-03-18T01:15:24;97914.03;;;6.95;96.93
53719;BME280;39616;48.872;9.390;2023-03-18T01:17:54;97915.91;;;6.95;96.54
53719;BME280;39616;48.872;9.390;2023-03-18T01:20:26;97908.94;;;6.94;97.80
53719;BME280;39616;48.872;9.390;2023-03-18T01:22:56;97913.78;;;6.92;97.02
53719;BME280;39616;48.872;9.390;2023-03-18T01:25:27;97908.16;;;6.88;97.61
53719;BME280;39616;48.872;9.390;2023-03-18T01:27:57;97919.53;;;6.85;97.99
53719;BME280;39616;48.872;9.390;2023-03-18T01:30:28;97911.75;;;6.78;98.62
53719;BME280;39616;48.872;9.390;2023-03-18T01:33:00;97917.16;;;6.73;98.61
53719;BME280;39616;48.872;9.390;2023-03-18T01:35:31;97916.66;;;6.71;99.59
53719;BME280;39616;48.872;9.390;2023-03-18T01:38:03;97917.50;;;6.67;99.27
53719;BME280;39616;48.872;9.390;2023-03-18T01:40:36;97919.19;;;6.58;99.06
53719;BME280;39616;48.872;9.390;2023-03-18T01:45:43;97921.94;;;6.47;99.85
53719;BME280;39616;48.872;9.390;2023-03-18T01:48:16;97916.03;;;6.45;100.00
53719;BME280;39616;48.872;9.390;2023-03-18T01:50:53;97911.25;;;6.37;100.00
53719;BME280;39616;48.872;9.390;2023-03-18T01:53:31;97908.81;;;6.36;100.00
53719;BME280;39616;48.872;9.390;2023-03-18T01:56:06;97909.09;;;6.34;100.00
53719;BME280;39616;48.872;9.390;2023-03-18T01:58:42;97901.81;;;6.35;100.00
53719;BME280;39616;48.872;9.390;2023-03-18T02:01:19;97898.56;;;6.38;100.00
53719;BME280;39616;48.872;9.390;2023-03-18T02:03:52;97900.69;;;6.46;100.00
53719;BME280;39616;48.872;9.390;2023-03-18T02:06:23;97893.34;;;6.51;100.00
53719;BME280;39616;48.872;9.390;2023-03-18T02:08:54;97897.38;;;6.54;100.00
53719;BME280;39616;48.872;9.390;2023-03-18T02:11:25;97896.81;;;6.57;100.00
53719;BME280;39616;48.872;9.390;2023-03-18T02:13:56;97899.22;;;6.59;100.00
53719;BME280;39616;48.872;9.390;2023-03-18T02:16:29;97893.53;;;6.65;100.00
53719;BME280;39616;48.872;9.390;2023-03-18T02:19:10;97904.53;;;6.69;100.00
53719;BME280;39616;48.872;9.390;2023-03-18T02:22:03;97901.00;;;6.73;100.00
53719;BME280;39616;48.872;9.390;2023-03-18T02:25:00;97910.16;;;6.77;100.00
53719;BME280;39616;48.872;9.390;2023-03-18T02:27:36;97913.13;;;6.76;100.00
53719;BME280;39616;48.872;9.390;2023-03-18T02:30:15;97901.00;;;6.73;100.00
53719;BME280;39616;48.872;9.390;2023-03-18T02:32:48;97897.25;;;6.74;100.00
53719;BME280;39616;48.872;9.390;2023-03-18T02:35:19;97903.44;;;6.70;100.00
53719;BME280;39616;48.872;9.390;2023-03-18T02:37:50;97908.34;;;6.68;100.00
53719;BME280;39616;48.872;9.390;2023-03-18T02:40:32;97914.28;;;6.65;100.00
53719;BME280;39616;48.872;9.390;2023-03-18T02:48:36;97925.91;;;6.60;100.00
53719;BME280;39616;48.872;9.390;2023-03-18T02:51:08;97922.16;;;6.56;100.00
53719;BME280;39616;48.872;9.390;2023-03-18T02:53:39;97921.94;;;6.47;100.00
53719;BME280;39616;48.872;9.390;2023-03-18T02:56:11;97919.28;;;6.42;100.00
53719;BME280;39616;48.872;9.390;2023-03-18T02:58:41;97928.75;;;6.35;100.00
53719;BME280;39616;48.872;9.390;2023-03-18T03:01:11;97929.31;;;6.32;100.00
53719;BME280;39616;48.872;9.390;2023-03-18T03:03:42;97930.09;;;6.32;100.00
53719;BME280;39616;48.872;9.390;2023-03-18T03:06:13;97931.19;;;6.31;100.00
53719;BME280;39616;48.872;9.390;2023-03-18T03:08:43;97933.09;;;6.31;100.00
53719;BME280;39616;48.872;9.390;2023-03-18T03:11:14;97932.31;;;6.25;100.00
53719;BME280;39616;48.872;9.390;2023-03-18T03:13:45;97933.97;;;6.16;100.00
53719;BME280;39616;48.872;9.390;2023-03-18T03:16:16;97937.19;;;6.18;100.00
53719;BME280;39616;48.872;9.390;2023-03-18T03:18:47;97935.66;;;6.01;100.00
53719;BME280;39616;48.872;9.390;2023-03-18T03:21:17;97929.47;;;5.91;100.00
53719;BME280;39616;48.872;9.390;2023-03-18T03:23:48;97940.53;;;5.84;100.00
53719;BME280;39616;48.872;9.390;2023-03-18T03:26:19;97938.94;;;5.83;100.00
53719;BME280;39616;48.872;9.390;2023-03-18T03:28:49;97942.97;;;5.80;100.00
53719;BME280;39616;48.872;9.390;2023-03-18T03:31:20;97956.41;;;5.80;100.00
53719;BME280;39616;48.872;9.390;2023-03-18T03:33:50;97943.78;;;5.76;100.00
53719;BME280;39616;48.872;9.390;2023-03-18T03:36:21;97958.03;;;5.76;100.00
53719;BME280;39616;48.872;9.390;2023-03-18T03:38:52;97945.94;;;5.74;100.00
53719;BME280;39616;48.872;9.390;2023-03-18T03:41:23;97952.94;;;5.70;100.00
53719;BME280;39616;48.872;9.390;2023-03-18T03:43:53;97954.31;;;5.67;100.00
53719;BME280;39616;48.872;9.390;2023-03-18T03:46:23;97952.69;;;5.66;100.00
53719;BME280;39616;48.872;9.390;2023-03-18T03:48:54;97959.44;;;5.64;100.00
53719;BME280;39616;48.872;9.390;2023-03-18T03:51:24;97965.34;;;5.61;100.00
53719;BME280;39616;48.872;9.390;2023-03-18T03:53:54;97961.88;;;5.60;100.00
53719;BME280;39616;48.872;9.390;2023-03-18T03:56:25;97974.22;;;5.61;100.00
53719;BME280;39616;48.872;9.390;2023-03-18T03:58:56;97966.44;;;5.54;100.00
53719;BME280;39616;48.872;9.390;2023-03-18T04:01:26;97968.63;;;5.52;100.00
53719;BME280;39616;48.872;9.390;2023-03-18T04:03:57;97977.72;;;5.51;100.00
53719;BME280;39616;48.872;9.390;2023-03-18T04:06:28;97980.97;;;5.48;100.00
53719;BME280;39616;48.872;9.390;2023-03-18T04:08:58;97979.66;;;5.46;100.00
53719;BME280;39616;48.872;9.390;2023-03-18T04:11:28;97977.75;;;5.41;100.00
53719;BME280;39616;48.872;9.390;2023-03-18T04:13:59;97981.00;;;5.38;100.00
53719;BME280;39616;48.872;9.390;2023-03-18T04:16:30;97976.16;;;5.35;100.00
53719;BME280;39616;48.872;9.390;2023-03-18T04:19:00;97974.28;;;5.25;100.00
53719;BME280;39616;48.872;9.390;2023-03-18T04:21:30;97975.91;;;5.21;100.00
53719;BME280;39616;48.872;9.390;2023-03-18T04:24:02;97982.09;;;5.17;100.00
53719;BME280;39616;48.872;9.390;2023-03-18T04:26:33;97982.91;;;5.12;100.00
53719;BME280;39616;48.872;9.390;2023-03-18T04:29:03;97974.03;;;5.06;100.00
53719;BME280;39616;48.872;9.390;2023-03-18T04:31:34;97973.50;;;5.04;100.00
53719;BME280;39616;48.872;9.390;2023-03-18T04:34:05;97981.00;;;5.07;100.00
53719;BME280;39616;48.872;9.390;2023-03-18T04:36:35;97985.06;;;5.05;100.00
53719;BME280;39616;48.872;9.390;2023-03-18T04:39:05;97971.06;;;5.03;100.00
53719;BME280;39616;48.872;9.390;2023-03-18T04:41:36;97981.28;;;4.96;100.00
53719;BME280;39616;48.872;9.390;2023-03-18T04:44:09;97985.28;;;4.88;100.00
53719;BME280;39616;48.872;9.390;2023-03-18T04:46:39;97982.88;;;4.81;100.00
53719;BME280;39616;48.872;9.390;2023-03-18T04:49:09;97982.34;;;4.79;100.00
53719;BME280;39616;48.872;9.390;2023-03-18T04:51:41;97984.22;;;4.79;100.00
53719;BME280;39616;48.872;9.390;2023-03-18T04:54:11;97980.72;;;4.73;100.00
53719;BME280;39616;48.872;9.390;2023-03-18T04:56:42;97990.66;;;4.68;100.00
53719;BME280;39616;48.872;9.390;2023-03-18T04:59:12;97989.31;;;4.65;100.00
53719;BME280;39616;48.872;9.390;2023-03-18T05:01:43;97984.19;;;4.64;100.00
53719;BME280;39616;48.872;9.390;2023-03-18T05:04:13;97986.06;;;4.58;100.00
53719;BME280;39616;48.872;9.390;2023-03-18T05:06:43;97987.66;;;4.54;100.00
53719;BME280;39616;48.872;9.390;2023-03-18T05:09:14;97991.97;;;4.50;100.00
53719;BME280;39616;48.872;9.390;2023-03-18T05:11:44;97989.25;;;4.45;100.00
53719;BME280;39616;48.872;9.390;2023-03-18T05:14:14;97991.66;;;4.41;100.00
53719;BME280;39616;48.872;9.390;2023-03-18T05:16:45;97981.19;;;4.40;100.00
53719;BME280;39616;48.872;9.390;2023-03-18T05:19:15;97989.25;;;4.40;100.00
53719;BME280;39616;48.872;9.390;2023-03-18T05:21:46;97983.06;;;4.39;100.00
53719;BME280;39616;48.872;9.390;2023-03-18T05:24:16;97986.81;;;4.33;100.00
53719;BME280;39616;48.872;9.390;2023-03-18T05:26:47;97991.88;;;4.29;100.00
53719;BME280;39616;48.872;9.390;2023-03-18T05:29:18;97986.50;;;4.24;100.00
53719;BME280;39616;48.872;9.390;2023-03-18T05:31:48;97994.28;;;4.21;100.00
53719;BME280;39616;48.872;9.390;2023-03-18T05:34:19;97991.84;;;4.19;100.00
53719;BME280;39616;48.872;9.390;2023-03-18T05:36:49;97994.53;;;4.19;100.00
53719;BME280;39616;48.872;9.390;2023-03-18T05:39:20;97992.66;;;4.20;100.00
53719;BME280;39616;48.872;9.390;2023-03-18T05:41:50;97995.88;;;4.17;100.00
53719;BME280;39616;48.872;9.390;2023-03-18T05:44:21;98003.38;;;4.15;100.00
53719;BME280;39616;48.872;9.390;2023-03-18T05:46:52;98003.09;;;4.11;100.00
53719;BME280;39616;48.872;9.390;2023-03-18T05:49:22;98005.75;;;4.06;100.00
53719;BME280;39616;48.872;9.390;2023-03-18T05:51:53;97997.16;;;3.99;100.00
53719;BME280;39616;48.872;9.390;2023-03-18T05:54:23;97999.78;;;3.94;100.00
53719;BME280;39616;48.872;9.390;2023-03-18T05:56:54;98002.44;;;3.88;100.00
53719;BME280;39616;48.872;9.390;2023-03-18T05:59:25;98001.09;;;3.86;100.00
53719;BME280;39616;48.872;9.390;2023-03-18T06:01:56;97998.94;;;3.83;100.00
53719;BME280;39616;48.872;9.390;2023-03-18T06:04:26;98000.00;;;3.82;100.00
53719;BME280;39616;48.872;9.390;2023-03-18T06:06:56;97998.94;;;3.83;100.00
53719;BME280;39616;48.872;9.390;2023-03-18T06:09:27;98007.81;;;3.88;100.00
53719;BME280;39616;48.872;9.390;2023-03-18T06:11:57;98006.22;;;3.93;100.00
53719;BME280;39616;48.872;9.390;2023-03-18T06:14:28;98005.97;;;3.94;100.00
53719;BME280;39616;48.872;9.390;2023-03-18T06:16:59;98000.63;;;3.99;100.00
53719;BME280;39616;48.872;9.390;2023-03-18T06:19:29;98011.13;;;4.06;100.00
53719;BME280;39616;48.872;9.390;2023-03-18T06:22:01;98003.38;;;4.09;100.00
53719;BME280;39616;48.872;9.390;2023-03-18T06:24:31;98009.31;;;4.17;100.00
53719;BME280;39616;48.872;9.390;2023-03-18T06:27:02;98011.47;;;4.25;100.00
53719;BME280;39616;48.872;9.390;2023-03-18T06:29:33;98006.09;;;4.30;100.00
53719;BME280;39616;48.872;9.390;2023-03-18T06:32:04;98004.50;;;4.29;100.00
53719;BME280;39616;48.872;9.390;2023-03-18T06:34:34;98008.28;;;4.33;100.00
53719;BME280;39616;48.872;9.390;2023-03-18T06:37:05;98015.56;;;4.43;100.00
53719;BME280;39616;48.872;9.390;2023-03-18T06:39:35;98016.13;;;4.50;100.00
53719;BME280;39616;48.872;9.390;2023-03-18T06:42:06;98015.06;;;4.61;100.00
53719;BME280;39616;48.872;9.390;2023-03-18T06:44:36;98022.63;;;4.74;100.00
53719;BME280;39616;48.872;9.390;2023-03-18T06:47:07;98013.25;;;4.87;100.00
53719;BME280;39616;48.872;9.390;2023-03-18T06:49:38;98018.66;;;5.13;100.00
53719;BME280;39616;48.872;9.390;2023-03-18T06:52:08;98026.72;;;5.38;100.00
53719;BME280;39616;48.872;9.390;2023-03-18T06:54:39;98022.94;;;5.49;97.16
53719;BME280;39616;48.872;9.390;2023-03-18T06:57:10;98019.13;;;5.66;95.57
53719;BME280;39616;48.872;9.390;2023-03-18T06:59:41;98024.50;;;5.76;93.49
53719;BME280;39616;48.872;9.390;2023-03-18T07:02:11;98026.09;;;5.87;91.01
53719;BME280;39616;48.872;9.390;2023-03-18T07:04:42;98022.63;;;5.97;89.85
53719;BME280;39616;48.872;9.390;2023-03-18T07:07:12;98019.03;;;6.17;89.99
53719;BME280;39616;48.872;9.390;2023-03-18T07:09:43;98028.91;;;6.42;88.90
53719;BME280;39616;48.872;9.390;2023-03-18T07:12:14;98030.72;;;6.51;88.07
53719;BME280;39616;48.872;9.390;2023-03-18T07:14:45;98018.25;;;6.66;87.99
53719;BME280;39616;48.872;9.390;2023-03-18T07:17:16;98023.38;;;7.12;86.98
53719;BME280;39616;48.872;9.390;2023-03-18T07:19:46;98026.72;;;7.62;83.96
53719;BME280;39616;48.872;9.390;2023-03-18T07:22:16;98028.34;;;8.16;79.32
53719;BME280;39616;48.872;9.390;2023-03-18T07:24:47;98024.22;;;8.48;77.23
53719;BME280;39616;48.872;9.390;2023-03-18T07:27:17;98016.78;;;8.77;75.06
53719;BME280;39616;48.872;9.390;2023-03-18T07:29:48;98019.84;;;9.08;73.73
53719;BME280;39616;48.872;9.390;2023-03-18T07:32:18;98023.09;;;9.43;72.79
53719;BME280;39616;48.872;9.390;2023-03-18T07:34:48;98021.25;;;9.71;70.90
53719;BME280;39616;48.872;9.390;2023-03-18T07:37:19;98024.31;;;9.83;71.08
53719;BME280;39616;48.872;9.390;2023-03-18T07:39:49;98040.69;;;10.06;70.48
53719;BME280;39616;48.872;9.390;2023-03-18T07:42:22;98032.19;;;10.54;68.26
53719;BME280;39616;48.872;9.390;2023-03-18T07:44:52;98032.06;;;10.59;66.45
53719;BME280;39616;48.872;9.390;2023-03-18T07:47:24;98025.22;;;10.75;66.38
53719;BME280;39616;48.872;9.390;2023-03-18T07:49:54;98022.16;;;10.91;65.68
53719;BME280;39616;48.872;9.390;2023-03-18T07:52:25;98018.78;;;11.52;64.10
53719;BME280;39616;48.872;9.390;2023-03-18T07:54:55;98018.59;;;11.71;63.49
53719;BME280;39616;48.872;9.390;2023-03-18T07:57:26;98026.38;;;11.87;63.04
53719;BME280;39616;48.872;9.390;2023-03-18T07:59:56;98018.06;;;12.23;61.50
53719;BME280;39616;48.872;9.390;2023-03-18T08:02:26;98020.88;;;12.49;60.89
53719;BME280;39616;48.872;9.390;2023-03-18T08:04:57;98011.97;;;12.74;60.29
53719;BME280;39616;48.872;9.390;2023-03-18T08:07:28;98017.75;;;12.90;59.71
53719;BME280;39616;48.872;9.390;2023-03-18T08:09:58;98019.03;;;13.10;58.32
53719;BME280;39616;48.872;9.390;2023-03-18T08:12:29;98034.41;;;13.49;57.64
53719;BME280;39616;48.872;9.390;2023-03-18T08:15:01;98023.78;;;13.83;56.96
53719;BME280;39616;48.872;9.390;2023-03-18T08:17:31;98025.81;;;13.94;55.71
53719;BME280;39616;48.872;9.390;2023-03-18T08:20:01;98016.91;;;14.23;54.03
53719;BME280;39616;48.872;9.390;2023-03-18T08:22:32;98026.84;;;14.58;51.93
53719;BME280;39616;48.872;9.390;2023-03-18T08:25:02;98035.44;;;14.77;50.90
53719;BME280;39616;48.872;9.390;2023-03-18T08:27:33;98025.59;;;15.27;50.51
53719;BME280;39616;48.872;9.390;2023-03-18T08:30:04;98028.97;;;15.44;50.28
53719;BME280;39616;48.872;9.390;2023-03-18T08:32:35;98020.50;;;15.58;49.10
53719;BME280;39616;48.872;9.390;2023-03-18T08:35:06;98014.81;;;15.97;46.73
53719;BME280;39616;48.872;9.390;2023-03-18T08:37:38;98017.09;;;16.93;44.58
53719;BME280;39616;48.872;9.390;2023-03-18T08:40:09;98015.03;;;17.42;43.43
53719;BME280;39616;48.872;9.390;2023-03-18T08:42:40;98019.88;;;17.49;42.31
53719;BME280;39616;48.872;9.390;2023-03-18T08:45:11;98014.31;;;17.45;41.87
53719;BME280;39616;48.872;9.390;2023-03-18T08:47:42;98031.28;;;17.91;40.81
53719;BME280;39616;48.872;9.390;2023-03-18T08:50:13;98023.75;;;18.51;39.45
53719;BME280;39616;48.872;9.390;2023-03-18T08:52:43;98024.03;;;18.30;38.21
53719;BME280;39616;48.872;9.390;2023-03-18T08:55:13;98023.22;;;18.62;39.44
53719;BME280;39616;48.872;9.390;2023-03-18T08:57:45;98021.38;;;18.02;38.28
53719;BME280;39616;48.872;9.390;2023-03-18T09:00:16;98022.69;;;18.56;39.80
53719;BME280;39616;48.872;9.390;2023-03-18T09:02:47;98018.88;;;18.61;37.64
53719;BME280;39616;48.872;9.390;2023-03-18T09:05:18;98016.22;;;18.80;37.40
53719;BME280;39616;48.872;9.390;2023-03-18T09:07:49;98010.06;;;19.41;36.65
53719;BME280;39616;48.872;9.390;2023-03-18T09:10:20;98006.97;;;18.88;36.65
53719;BME280;39616;48.872;9.390;2023-03-18T09:12:50;98004.28;;;17.93;38.07
53719;BME280;39616;48.872;9.390;2023-03-18T09:15:21;98012.56;;;17.25;39.37
53719;BME280;39616;48.872;9.390;2023-03-18T09:17:51;98011.28;;;18.22;39.39
53719;BME280;39616;48.872;9.390;2023-03-18T09:20:22;98005.19;;;18.13;41.17
53719;BME280;39616;48.872;9.390;2023-03-18T09:22:53;98006.66;;;19.09;39.10
53719;BME280;39616;48.872;9.390;2023-03-18T09:25:24;98004.13;;;18.85;37.88
53719;BME280;39616;48.872;9.390;2023-03-18T09:27:54;98002.25;;;19.24;37.33
53719;BME280;39616;48.872;9.390;2023-03-18T09:30:25;98005.56;;;19.14;37.50
53719;BME280;39616;48.872;9.390;2023-03-18T09:32:56;98009.84;;;19.11;36.93
53719;BME280;39616;48.872;9.390;2023-03-18T09:35:26;98010.38;;;18.50;37.60
53719;BME280;39616;48.872;9.390;2023-03-18T09:38:00;98011.91;;;18.16;39.36
53719;BME280;39616;48.872;9.390;2023-03-18T09:40:33;98011.25;;;18.86;37.08
53719;BME280;39616;48.872;9.390;2023-03-18T09:43:17;98011.88;;;18.47;37.94
53719;BME280;39616;48.872;9.390;2023-03-18T09:49:07;97995.59;;;18.54;37.35
53719;BME280;39616;48.872;9.390;2023-03-18T09:54:30;97988.78;;;20.00;35.33
53719;BME280;39616;48.872;9.390;2023-03-18T09:57:03;97994.41;;;19.06;36.62
53719;BME280;39616;48.872;9.390;2023-03-18T09:59:38;97987.16;;;20.45;36.94
53719;BME280;39616;48.872;9.390;2023-03-18T10:02:18;97984.75;;;20.93;34.57
53719;BME280;39616;48.872;9.390;2023-03-18T10:04:54;97985.47;;;21.84;32.99
53719;BME280;39616;48.872;9.390;2023-03-18T10:07:39;97985.88;;;22.30;32.37
53719;BME280;39616;48.872;9.390;2023-03-18T10:10:24;97994.84;;;21.79;33.19
53719;BME280;39616;48.872;9.390;2023-03-18T10:13:06;97991.38;;;21.18;33.43
53719;BME280;39616;48.872;9.390;2023-03-18T10:15:44;97979.03;;;20.52;34.44
53719;BME280;39616;48.872;9.390;2023-03-18T10:18:24;97982.69;;;20.60;35.04
53719;BME280;39616;48.872;9.390;2023-03-18T10:23:42;97973.13;;;21.07;34.05
53719;BME280;39616;48.872;9.390;2023-03-18T10:26:23;97966.38;;;21.04;35.12
53719;BME280;39616;48.872;9.390;2023-03-18T10:29:02;97965.78;;;20.61;34.22
53719;BME280;39616;48.872;9.390;2023-03-18T10:34:20;97969.84;;;20.18;35.66
53719;BME280;39616;48.872;9.390;2023-03-18T10:39:27;97969.66;;;20.07;35.99
53719;BME280;39616;48.872;9.390;2023-03-18T10:42:01;97970.53;;;20.38;35.22
53719;BME280;39616;48.872;9.390;2023-03-18T10:44:40;97967.28;;;20.32;34.93
53719;BME280;39616;48.872;9.390;2023-03-18T10:47:28;97960.84;;;20.47;34.79
53719;BME280;39616;48.872;9.390;2023-03-18T10:55:46;97951.03;;;20.23;34.92
53719;BME280;39616;48.872;9.390;2023-03-18T10:58:18;97949.19;;;19.62;35.80
53719;BME280;39616;48.872;9.390;2023-03-18T11:00:49;97953.00;;;20.76;34.82
53719;BME280;39616;48.872;9.390;2023-03-18T11:03:27;97945.47;;;20.99;33.42
53719;BME280;39616;48.872;9.390;2023-03-18T11:06:01;97949.91;;;21.41;34.94
53719;BME280;39616;48.872;9.390;2023-03-18T11:08:38;97948.53;;;21.25;33.35
53719;BME280;39616;48.872;9.390;2023-03-18T11:13:52;97939.91;;;20.96;33.82
53719;BME280;39616;48.872;9.390;2023-03-18T11:16:38;97932.88;;;21.02;34.15
53719;BME280;39616;48.872;9.390;2023-03-18T11:19:35;97932.88;;;20.45;34.32
53719;BME280;39616;48.872;9.390;2023-03-18T11:24:39;97925.31;;;20.39;35.00
53719;BME280;39616;48.872;9.390;2023-03-18T11:29:48;97927.75;;;20.44;35.08
53719;BME280;39616;48.872;9.390;2023-03-18T11:32:31;97932.31;;;20.33;34.90
53719;BME280;39616;48.872;9.390;2023-03-18T11:35:05;97929.41;;;20.22;34.00
53719;BME280;39616;48.872;9.390;2023-03-18T11:37:38;97924.06;;;20.59;35.09
53719;BME280;39616;48.872;9.390;2023-03-18T11:42:45;97913.13;;;20.40;34.43
53719;BME280;39616;48.872;9.390;2023-03-18T11:47:55;97915.72;;;20.82;34.18
53719;BME280;39616;48.872;9.390;2023-03-18T11:50:36;97907.28;;;21.02;33.46
53719;BME280;39616;48.872;9.390;2023-03-18T11:53:26;97905.88;;;21.15;33.28
53719;BME280;39616;48.872;9.390;2023-03-18T11:58:59;97901.81;;;20.45;33.08
53719;BME280;39616;48.872;9.390;2023-03-18T12:01:43;97896.34;;;20.48;34.87
53719;BME280;39616;48.872;9.390;2023-03-18T12:10:16;97886.38;;;20.67;31.80
53719;BME280;39616;48.872;9.390;2023-03-18T12:13:02;97890.03;;;19.95;33.68
53719;BME280;39616;48.872;9.390;2023-03-18T12:15:46;97876.53;;;20.13;34.61
53719;BME280;39616;48.872;9.390;2023-03-18T12:36:11;97873.44;;;19.91;33.27
53719;BME280;39616;48.872;9.390;2023-03-18T12:47:15;97856.56;;;20.46;31.62
53719;BME280;39616;48.872;9.390;2023-03-18T12:49:53;97863.03;;;20.57;31.60
53719;BME280;39616;48.872;9.390;2023-03-18T12:55:28;97847.66;;;20.26;31.79
53719;BME280;39616;48.872;9.390;2023-03-18T13:11:30;97836.84;;;20.14;31.63
53719;BME280;39616;48.872;9.390;2023-03-18T13:14:06;97835.09;;;20.28;31.90
53719;BME280;39616;48.872;9.390;2023-03-18T13:16:42;97834.63;;;20.49;32.54
53719;BME280;39616;48.872;9.390;2023-03-18T13:19:12;97829.13;;;20.23;31.72
53719;BME280;39616;48.872;9.390;2023-03-18T13:21:55;97831.94;;;20.00;32.04
53719;BME280;39616;48.872;9.390;2023-03-18T13:24:36;97828.97;;;20.12;32.49
53719;BME280;39616;48.872;9.390;2023-03-18T13:27:24;97828.00;;;20.27;32.97
53719;BME280;39616;48.872;9.390;2023-03-18T13:30:28;97824.03;;;20.52;31.82
53719;BME280;39616;48.872;9.390;2023-03-18T13:36:36;97809.75;;;20.46;31.59
53719;BME280;39616;48.872;9.390;2023-03-18T13:38:53;97806.84;;;20.35;31.14
53719;BME280;39616;48.872;9.390;2023-03-18T13:44:11;97813.69;;;20.15;32.74
53719;BME280;39616;48.872;9.390;2023-03-18T13:47:02;97813.88;;;20.29;32.23
53719;BME280;39616;48.872;9.390;2023-03-18T13:49:35;97815.22;;;20.42;31.29
53719;BME280;39616;48.872;9.390;2023-03-18T13:52:42;97811.16;;;20.33;32.01
53719;BME280;39616;48.872;9.390;2023-03-18T13:55:39;97808.53;;;20.43;32.45
53719;BME280;39616;48.872;9.390;2023-03-18T14:03:27;97809.44;;;19.68;33.78
53719;BME280;39616;48.872;9.390;2023-03-18T14:08:48;97806.00;;;19.74;31.57
53719;BME280;39616;48.872;9.390;2023-03-18T14:11:35;97807.31;;;19.84;31.56
53719;BME280;39616;48.872;9.390;2023-03-18T14:17:20;97806.69;;;19.94;32.96
53719;BME280;39616;48.872;9.390;2023-03-18T14:19:53;97797.41;;;20.06;32.47
53719;BME280;39616;48.872;9.390;2023-03-18T14:22:36;97797.31;;;19.99;32.15
53719;BME280;39616;48.872;9.390;2023-03-18T14:30:43;97797.19;;;19.42;36.66
53719;BME280;39616;48.872;9.390;2023-03-18T14:35:55;97799.94;;;19.19;35.56
53719;BME280;39616;48.872;9.390;2023-03-18T14:38:33;97793.38;;;18.81;36.03
53719;BME280;39616;48.872;9.390;2023-03-18T14:41:16;97792.56;;;19.00;38.09
53719;BME280;39616;48.872;9.390;2023-03-18T14:44:00;97785.44;;;18.99;35.82
53719;BME280;39616;48.872;9.390;2023-03-18T14:46:36;97785.97;;;19.05;36.59
53719;BME280;39616;48.872;9.390;2023-03-18T14:49:50;97787.22;;;18.88;36.70
53719;BME280;39616;48.872;9.390;2023-03-18T14:52:05;97789.16;;;18.88;37.25
53719;BME280;39616;48.872;9.390;2023-03-18T14:54:42;97783.66;;;18.88;37.55
53719;BME280;39616;48.872;9.390;2023-03-18T14:57:14;97779.09;;;18.95;36.87
53719;BME280;39616;48.872;9.390;2023-03-18T14:59:45;97777.84;;;18.89;37.20
53719;BME280;39616;48.872;9.390;2023-03-18T15:02:25;97778.25;;;18.91;36.12
53719;BME280;39616;48.872;9.390;2023-03-18T15:04:58;97778.19;;;18.68;36.33
53719;BME280;39616;48.872;9.390;2023-03-18T15:07:35;97771.28;;;18.74;36.49
53719;BME280;39616;48.872;9.390;2023-03-18T15:10:12;97769.72;;;18.77;37.94
53719;BME280;39616;48.872;9.390;2023-03-18T15:12:57;97770.97;;;18.79;37.27
53719;BME280;39616;48.872;9.390;2023-03-18T15:15:27;97771.44;;;18.66;37.62
53719;BME280;39616;48.872;9.390;2023-03-18T15:18:10;97771.38;;;18.62;37.74
53719;BME280;39616;48.872;9.390;2023-03-18T15:20:48;97772.63;;;18.45;38.31
53719;BME280;39616;48.872;9.390;2023-03-18T15:23:28;97768.72;;;18.46;38.59
53719;BME280;39616;48.872;9.390;2023-03-18T15:26:02;97782.38;;;18.43;37.57
53719;BME280;39616;48.872;9.390;2023-03-18T15:28:33;97771.63;;;18.34;37.12
53719;BME280;39616;48.872;9.390;2023-03-18T15:31:03;97762.94;;;18.32;38.94
53719;BME280;39616;48.872;9.390;2023-03-18T15:33:36;97761.41;;;18.15;38.20